createdAt,value
2017-05-30T00:00:11.198Z,1006.1
2017-05-30T00:00:51.735Z,1006.09
2017-05-30T00:01:32.275Z,1006.07
2017-05-30T00:02:12.825Z,1006.1
2017-05-30T00:02:53.372Z,1006.07
2017-05-30T00:03:33.913Z,1006.07
2017-05-30T00:04:14.445Z,1006.08
2017-05-30T00:04:54.989Z,1006.1
2017-05-30T00:05:35.525Z,1006.1
2017-05-30T00:06:16.073Z,1006.1
2017-05-30T00:06:56.617Z,1006.09
2017-05-30T00:07:37.167Z,1006.09
2017-05-30T00:08:17.710Z,1006.11
2017-05-30T00:08:58.262Z,1006.07
2017-05-30T00:09:38.805Z,1006.1
2017-05-30T00:10:19.352Z,1006.11
2017-05-30T00:10:59.898Z,1006.17
2017-05-30T00:11:40.487Z,1006.16
2017-05-30T00:12:21.079Z,1006.17
2017-05-30T00:13:01.599Z,1006.19
2017-05-30T00:13:42.138Z,1006.2
2017-05-30T00:14:22.671Z,1006.19
2017-05-30T00:15:03.218Z,1006.19
2017-05-30T00:15:43.755Z,1006.18
2017-05-30T00:16:24.304Z,1006.15
2017-05-30T00:17:04.846Z,1006.15
2017-05-30T00:17:45.379Z,1006.09
2017-05-30T00:18:25.924Z,1006.15
2017-05-30T00:19:06.460Z,1006.15
2017-05-30T00:19:46.999Z,1006.17
2017-05-30T00:20:27.542Z,1006.2
2017-05-30T00:21:08.084Z,1006.22
2017-05-30T00:21:48.623Z,1006.21
2017-05-30T00:22:29.162Z,1006.21
2017-05-30T00:23:09.706Z,1006.21
2017-05-30T00:23:50.241Z,1006.21
2017-05-30T00:24:30.779Z,1006.24
2017-05-30T00:25:11.320Z,1006.24
2017-05-30T00:25:51.906Z,1006.25
2017-05-30T00:26:32.453Z,1006.23
2017-05-30T00:27:13.001Z,1006.24
2017-05-30T00:27:53.543Z,1006.23
2017-05-30T00:28:34.084Z,1006.28
2017-05-30T00:29:14.623Z,1006.27
2017-05-30T00:29:55.158Z,1006.34
2017-05-30T00:30:35.703Z,1006.31
2017-05-30T00:31:16.242Z,1006.34
2017-05-30T00:31:56.783Z,1006.32
2017-05-30T00:32:37.310Z,1006.34
2017-05-30T00:33:17.854Z,1006.32
2017-05-30T00:33:58.404Z,1006.31
2017-05-30T00:34:38.945Z,1006.32
2017-05-30T00:35:19.487Z,1006.27
2017-05-30T00:36:00.024Z,1006.36
2017-05-30T00:36:40.570Z,1006.33
2017-05-30T00:37:21.112Z,1006.29
2017-05-30T00:38:01.649Z,1006.3
2017-05-30T00:38:42.193Z,1006.31
2017-05-30T00:39:22.744Z,1006.31
2017-05-30T00:40:03.282Z,1006.31
2017-05-30T00:40:43.829Z,1006.35
2017-05-30T00:41:24.369Z,1006.35
2017-05-30T00:42:04.910Z,1006.33
2017-05-30T00:42:45.450Z,1006.31
2017-05-30T00:43:25.986Z,1006.34
2017-05-30T00:44:06.521Z,1006.32
2017-05-30T00:44:47.071Z,1006.33
2017-05-30T00:45:27.616Z,1006.34
2017-05-30T00:46:08.167Z,1006.32
2017-05-30T00:46:48.709Z,1006.33
2017-05-30T00:47:29.253Z,1006.34
2017-05-30T00:48:09.797Z,1006.34
2017-05-30T00:48:50.340Z,1006.32
2017-05-30T00:49:30.880Z,1006.33
2017-05-30T00:50:11.427Z,1006.31
2017-05-30T00:50:51.960Z,1006.29
2017-05-30T00:51:32.498Z,1006.32
2017-05-30T00:52:13.047Z,1006.31
2017-05-30T00:52:53.597Z,1006.31
2017-05-30T00:53:34.131Z,1006.29
2017-05-30T00:54:14.676Z,1006.24
2017-05-30T00:54:55.213Z,1006.25
2017-05-30T00:55:35.756Z,1006.25
2017-05-30T00:56:16.301Z,1006.24
2017-05-30T00:56:56.851Z,1006.2
2017-05-30T00:57:37.400Z,1006.17
2017-05-30T00:58:17.940Z,1006.15
2017-05-30T00:58:58.492Z,1006.14
2017-05-30T00:59:39.033Z,1006.17
2017-05-30T01:00:19.612Z,1006.16
2017-05-30T01:01:00.168Z,1006.14
2017-05-30T01:01:40.717Z,1006.13
2017-05-30T01:02:21.267Z,1006.17
2017-05-30T01:03:01.800Z,1006.17
2017-05-30T01:03:42.358Z,1006.19
2017-05-30T01:04:22.891Z,1006.22
2017-05-30T01:05:03.428Z,1006.23
2017-05-30T01:05:43.965Z,1006.18
2017-05-30T01:06:24.513Z,1006.21
2017-05-30T01:07:05.047Z,1006.21
2017-05-30T01:07:45.593Z,1006.21
2017-05-30T01:08:26.131Z,1006.23
2017-05-30T01:09:06.678Z,1006.25
2017-05-30T01:09:47.232Z,1006.25
2017-05-30T01:10:27.778Z,1006.24
2017-05-30T01:11:08.320Z,1006.24
2017-05-30T01:11:48.866Z,1006.25
2017-05-30T01:12:29.416Z,1006.26
2017-05-30T01:13:09.960Z,1006.26
2017-05-30T01:13:50.500Z,1006.22
2017-05-30T01:14:31.048Z,1006.22
2017-05-30T01:15:11.592Z,1006.23
2017-05-30T01:15:52.127Z,1006.27
2017-05-30T01:16:32.673Z,1006.24
2017-05-30T01:17:13.214Z,1006.27
2017-05-30T01:17:53.776Z,1006.26
2017-05-30T01:18:34.303Z,1006.27
2017-05-30T01:19:14.846Z,1006.24
2017-05-30T01:19:55.389Z,1006.32
2017-05-30T01:20:35.940Z,1006.27
2017-05-30T01:21:16.481Z,1006.34
2017-05-30T01:21:57.028Z,1006.31
2017-05-30T01:22:37.574Z,1006.35
2017-05-30T01:23:18.120Z,1006.35
2017-05-30T01:23:58.666Z,1006.4
2017-05-30T01:24:39.199Z,1006.41
2017-05-30T01:25:19.744Z,1006.4
2017-05-30T01:26:00.282Z,1006.44
2017-05-30T01:26:40.828Z,1006.41
2017-05-30T01:27:21.367Z,1006.41
2017-05-30T01:28:01.952Z,1006.4
2017-05-30T01:28:42.489Z,1006.39
2017-05-30T01:29:23.024Z,1006.36
2017-05-30T01:30:03.569Z,1006.35
2017-05-30T01:30:44.119Z,1006.32
2017-05-30T01:31:24.668Z,1006.36
2017-05-30T01:32:05.206Z,1006.34
2017-05-30T01:32:45.762Z,1006.36
2017-05-30T01:33:26.305Z,1006.38
2017-05-30T01:34:06.855Z,1006.36
2017-05-30T01:34:47.406Z,1006.36
2017-05-30T01:35:27.958Z,1006.39
2017-05-30T01:36:08.509Z,1006.39
2017-05-30T01:36:49.059Z,1006.4
2017-05-30T01:37:29.605Z,1006.4
2017-05-30T01:38:10.151Z,1006.41
2017-05-30T01:38:50.707Z,1006.44
2017-05-30T01:39:31.257Z,1006.43
2017-05-30T01:40:11.811Z,1006.43
2017-05-30T01:40:52.360Z,1006.43
2017-05-30T01:41:32.905Z,1006.44
2017-05-30T01:42:13.454Z,1006.45
2017-05-30T01:42:54.007Z,1006.41
2017-05-30T01:43:34.558Z,1006.39
2017-05-30T01:44:15.106Z,1006.41
2017-05-30T01:44:55.654Z,1006.4
2017-05-30T01:45:36.203Z,1006.41
2017-05-30T01:46:16.750Z,1006.43
2017-05-30T01:46:57.299Z,1006.4
2017-05-30T01:47:37.845Z,1006.4
2017-05-30T01:48:18.397Z,1006.43
2017-05-30T01:48:58.948Z,1006.44
2017-05-30T01:49:39.491Z,1006.46
2017-05-30T01:50:20.019Z,1006.46
2017-05-30T01:51:00.579Z,1006.48
2017-05-30T01:51:41.126Z,1006.47
2017-05-30T01:52:21.661Z,1006.5
2017-05-30T01:53:02.196Z,1006.5
2017-05-30T01:53:42.739Z,1006.5
2017-05-30T01:54:23.283Z,1006.49
2017-05-30T01:55:03.830Z,1006.5
2017-05-30T01:55:44.361Z,1006.5
2017-05-30T01:56:24.907Z,1006.5
2017-05-30T01:57:05.456Z,1006.49
2017-05-30T01:57:46.002Z,1006.5
2017-05-30T01:58:26.558Z,1006.48
2017-05-30T01:59:07.090Z,1006.46
2017-05-30T01:59:47.638Z,1006.46
2017-05-30T02:00:28.186Z,1006.44
2017-05-30T02:01:08.728Z,1006.44
2017-05-30T02:01:49.278Z,1006.44
2017-05-30T02:02:29.841Z,1006.4
2017-05-30T02:03:10.390Z,1006.43
2017-05-30T02:03:50.932Z,1006.4
2017-05-30T02:04:31.477Z,1006.42
2017-05-30T02:05:12.014Z,1006.45
2017-05-30T02:05:52.563Z,1006.47
2017-05-30T02:06:33.111Z,1006.45
2017-05-30T02:07:13.650Z,1006.51
2017-05-30T02:07:54.199Z,1006.49
2017-05-30T02:08:34.746Z,1006.51
2017-05-30T02:09:15.298Z,1006.48
2017-05-30T02:09:55.837Z,1006.51
2017-05-30T02:10:36.374Z,1006.46
2017-05-30T02:11:16.923Z,1006.49
2017-05-30T02:11:57.468Z,1006.47
2017-05-30T02:12:38.013Z,1006.48
2017-05-30T02:13:18.556Z,1006.47
2017-05-30T02:13:59.104Z,1006.49
2017-05-30T02:14:39.652Z,1006.52
2017-05-30T02:15:20.194Z,1006.58
2017-05-30T02:16:00.736Z,1006.62
2017-05-30T02:16:41.277Z,1006.63
2017-05-30T02:17:21.822Z,1006.62
2017-05-30T02:18:02.365Z,1006.6
2017-05-30T02:18:42.912Z,1006.66
2017-05-30T02:19:23.457Z,1006.67
2017-05-30T02:20:04.007Z,1006.66
2017-05-30T02:20:44.561Z,1006.7
2017-05-30T02:21:25.113Z,1006.68
2017-05-30T02:22:05.770Z,1006.7
2017-05-30T02:22:46.321Z,1006.65
2017-05-30T02:23:26.868Z,1006.69
2017-05-30T02:24:07.419Z,1006.67
2017-05-30T02:24:47.970Z,1006.67
2017-05-30T02:25:28.519Z,1006.67
2017-05-30T02:26:09.078Z,1006.64
2017-05-30T02:26:49.617Z,1006.67
2017-05-30T02:27:30.171Z,1006.68
2017-05-30T02:28:10.732Z,1006.68
2017-05-30T02:28:51.269Z,1006.69
2017-05-30T02:29:31.822Z,1006.73
2017-05-30T02:30:12.365Z,1006.74
2017-05-30T02:30:52.915Z,1006.71
2017-05-30T02:31:33.462Z,1006.72
2017-05-30T02:32:14.004Z,1006.75
2017-05-30T02:32:54.551Z,1006.73
2017-05-30T02:33:35.103Z,1006.75
2017-05-30T02:34:15.654Z,1006.77
2017-05-30T02:34:56.188Z,1006.75
2017-05-30T02:35:36.726Z,1006.81
2017-05-30T02:36:17.270Z,1006.81
2017-05-30T02:36:57.818Z,1006.84
2017-05-30T02:37:38.356Z,1006.82
2017-05-30T02:38:18.903Z,1006.79
2017-05-30T02:38:59.442Z,1006.78
2017-05-30T02:39:39.988Z,1006.8
2017-05-30T02:40:20.536Z,1006.76
2017-05-30T02:41:01.078Z,1006.79
2017-05-30T02:41:41.629Z,1006.8
2017-05-30T02:42:22.200Z,1006.79
2017-05-30T02:43:02.745Z,1006.82
2017-05-30T02:43:43.293Z,1006.82
2017-05-30T02:44:23.838Z,1006.82
2017-05-30T02:45:04.387Z,1006.82
2017-05-30T02:45:44.934Z,1006.8
2017-05-30T02:46:25.479Z,1006.81
2017-05-30T02:47:06.020Z,1006.79
2017-05-30T02:47:46.547Z,1006.82
2017-05-30T02:48:27.085Z,1006.79
2017-05-30T02:49:07.632Z,1006.8
2017-05-30T02:49:48.171Z,1006.81
2017-05-30T02:50:28.715Z,1006.86
2017-05-30T02:51:09.262Z,1006.85
2017-05-30T02:51:49.802Z,1006.83
2017-05-30T02:52:30.349Z,1006.84
2017-05-30T02:53:10.899Z,1006.81
2017-05-30T02:53:51.448Z,1006.79
2017-05-30T02:54:31.996Z,1006.77
2017-05-30T02:55:12.544Z,1006.77
2017-05-30T02:55:53.092Z,1006.82
2017-05-30T02:56:33.677Z,1006.8
2017-05-30T02:57:14.219Z,1006.8
2017-05-30T02:57:54.814Z,1006.84
2017-05-30T02:58:35.312Z,1006.8
2017-05-30T02:59:15.859Z,1006.84
2017-05-30T02:59:56.411Z,1006.87
2017-05-30T03:00:36.959Z,1006.85
2017-05-30T03:01:17.517Z,1006.82
2017-05-30T03:01:58.068Z,1006.84
2017-05-30T03:02:38.610Z,1006.86
2017-05-30T03:03:19.154Z,1006.89
2017-05-30T03:03:59.703Z,1006.86
2017-05-30T03:04:40.251Z,1006.85
2017-05-30T03:05:20.795Z,1006.88
2017-05-30T03:06:01.345Z,1006.84
2017-05-30T03:06:41.884Z,1006.83
2017-05-30T03:07:22.427Z,1006.83
2017-05-30T03:08:02.969Z,1006.83
2017-05-30T03:08:43.511Z,1006.84
2017-05-30T03:09:24.045Z,1006.86
2017-05-30T03:10:04.597Z,1006.87
2017-05-30T03:10:45.131Z,1006.84
2017-05-30T03:11:25.677Z,1006.86
2017-05-30T03:12:06.226Z,1006.85
2017-05-30T03:12:46.770Z,1006.89
2017-05-30T03:13:27.327Z,1006.91
2017-05-30T03:14:07.872Z,1006.88
2017-05-30T03:14:48.418Z,1006.89
2017-05-30T03:15:28.966Z,1006.87
2017-05-30T03:16:09.527Z,1006.91
2017-05-30T03:16:50.070Z,1006.87
2017-05-30T03:17:30.613Z,1006.85
2017-05-30T03:18:11.160Z,1006.86
2017-05-30T03:18:51.706Z,1006.86
2017-05-30T03:19:32.254Z,1006.82
2017-05-30T03:20:12.807Z,1006.84
2017-05-30T03:20:53.352Z,1006.85
2017-05-30T03:21:33.903Z,1006.87
2017-05-30T03:22:14.451Z,1006.88
2017-05-30T03:22:54.979Z,1006.83
2017-05-30T03:23:35.518Z,1006.87
2017-05-30T03:24:16.063Z,1006.85
2017-05-30T03:24:56.608Z,1006.86
2017-05-30T03:25:37.160Z,1006.87
2017-05-30T03:26:17.699Z,1006.89
2017-05-30T03:26:58.245Z,1006.89
2017-05-30T03:27:38.793Z,1006.84
2017-05-30T03:28:19.344Z,1006.86
2017-05-30T03:28:59.890Z,1006.89
2017-05-30T03:29:40.453Z,1006.88
2017-05-30T03:30:20.995Z,1006.86
2017-05-30T03:31:01.542Z,1006.87
2017-05-30T03:31:42.065Z,1006.89
2017-05-30T03:32:22.599Z,1006.91
2017-05-30T03:33:03.125Z,1006.9
2017-05-30T03:33:43.667Z,1006.96
2017-05-30T03:34:24.224Z,1006.97
2017-05-30T03:35:04.769Z,1006.96
2017-05-30T03:35:45.323Z,1006.96
2017-05-30T03:36:25.870Z,1006.93
2017-05-30T03:37:06.414Z,1006.97
2017-05-30T03:37:46.950Z,1006.96
2017-05-30T03:38:27.503Z,1006.95
2017-05-30T03:39:08.044Z,1007.02
2017-05-30T03:39:48.616Z,1007.01
2017-05-30T03:40:29.155Z,1007.01
2017-05-30T03:41:09.664Z,1007.02
2017-05-30T03:41:50.207Z,1007.03
2017-05-30T03:42:30.751Z,1007.05
2017-05-30T03:43:11.297Z,1007.05
2017-05-30T03:43:51.831Z,1007.06
2017-05-30T03:44:32.384Z,1007.06
2017-05-30T03:45:12.928Z,1007.09
2017-05-30T03:45:53.474Z,1007.07
2017-05-30T03:46:34.021Z,1007.07
2017-05-30T03:47:14.567Z,1007.12
2017-05-30T03:47:55.118Z,1007.07
2017-05-30T03:48:35.668Z,1007.11
2017-05-30T03:49:16.219Z,1007.14
2017-05-30T03:49:56.845Z,1007.14
2017-05-30T03:50:37.386Z,1007.15
2017-05-30T03:51:17.931Z,1007.15
2017-05-30T03:51:58.474Z,1007.14
2017-05-30T03:52:39.015Z,1007.15
2017-05-30T03:53:19.550Z,1007.13
2017-05-30T03:54:00.102Z,1007.15
2017-05-30T03:54:40.642Z,1007.11
2017-05-30T03:55:21.181Z,1007.05
2017-05-30T03:56:01.726Z,1007.05
2017-05-30T03:56:42.279Z,1007.01
2017-05-30T03:57:22.815Z,1006.98
2017-05-30T03:58:03.363Z,1006.96
2017-05-30T03:58:43.918Z,1007.01
2017-05-30T03:59:24.464Z,1007.01
2017-05-30T04:00:05.022Z,1007.01
2017-05-30T04:00:45.586Z,1007.06
2017-05-30T04:01:26.133Z,1007.01
2017-05-30T04:02:06.675Z,1007.04
2017-05-30T04:02:47.224Z,1007.08
2017-05-30T04:03:27.787Z,1007.09
2017-05-30T04:04:08.341Z,1007.11
2017-05-30T04:04:48.892Z,1007.13
2017-05-30T04:05:29.441Z,1007.15
2017-05-30T04:06:09.990Z,1007.15
2017-05-30T04:06:50.616Z,1007.2
2017-05-30T04:07:31.168Z,1007.2
2017-05-30T04:08:11.723Z,1007.19
2017-05-30T04:08:52.271Z,1007.21
2017-05-30T04:09:32.822Z,1007.21
2017-05-30T04:10:13.374Z,1007.24
2017-05-30T04:10:53.925Z,1007.24
2017-05-30T04:11:34.473Z,1007.27
2017-05-30T04:12:15.023Z,1007.24
2017-05-30T04:12:55.576Z,1007.24
2017-05-30T04:13:36.125Z,1007.26
2017-05-30T04:14:16.681Z,1007.28
2017-05-30T04:14:57.229Z,1007.25
2017-05-30T04:15:37.760Z,1007.23
2017-05-30T04:16:18.296Z,1007.25
2017-05-30T04:16:58.829Z,1007.23
2017-05-30T04:17:39.375Z,1007.25
2017-05-30T04:18:19.908Z,1007.22
2017-05-30T04:19:00.456Z,1007.24
2017-05-30T04:19:41.008Z,1007.27
2017-05-30T04:20:21.561Z,1007.27
2017-05-30T04:21:02.110Z,1007.3
2017-05-30T04:21:42.659Z,1007.31
2017-05-30T04:22:23.202Z,1007.29
2017-05-30T04:23:03.756Z,1007.32
2017-05-30T04:23:44.301Z,1007.31
2017-05-30T04:24:24.839Z,1007.31
2017-05-30T04:25:05.389Z,1007.3
2017-05-30T04:25:45.940Z,1007.35
2017-05-30T04:26:26.488Z,1007.35
2017-05-30T04:27:07.042Z,1007.37
2017-05-30T04:27:47.594Z,1007.4
2017-05-30T04:28:28.136Z,1007.42
2017-05-30T04:29:08.683Z,1007.4
2017-05-30T04:29:49.237Z,1007.38
2017-05-30T04:30:29.786Z,1007.37
2017-05-30T04:31:10.332Z,1007.37
2017-05-30T04:31:50.878Z,1007.38
2017-05-30T04:32:31.428Z,1007.37
2017-05-30T04:33:11.975Z,1007.38
2017-05-30T04:33:52.536Z,1007.4
2017-05-30T04:34:33.082Z,1007.36
2017-05-30T04:35:13.635Z,1007.38
2017-05-30T04:35:54.188Z,1007.34
2017-05-30T04:36:34.747Z,1007.34
2017-05-30T04:37:15.298Z,1007.35
2017-05-30T04:37:55.847Z,1007.35
2017-05-30T04:38:36.393Z,1007.31
2017-05-30T04:39:16.941Z,1007.35
2017-05-30T04:39:57.497Z,1007.37
2017-05-30T04:40:38.044Z,1007.33
2017-05-30T04:41:18.577Z,1007.31
2017-05-30T04:41:59.142Z,1007.29
2017-05-30T04:42:39.677Z,1007.31
2017-05-30T04:43:20.224Z,1007.32
2017-05-30T04:44:00.772Z,1007.32
2017-05-30T04:44:41.309Z,1007.29
2017-05-30T04:45:21.868Z,1007.31
2017-05-30T04:46:02.408Z,1007.3
2017-05-30T04:46:42.961Z,1007.31
2017-05-30T04:47:23.523Z,1007.32
2017-05-30T04:48:04.072Z,1007.32
2017-05-30T04:48:44.617Z,1007.35
2017-05-30T04:49:25.156Z,1007.39
2017-05-30T04:50:05.713Z,1007.39
2017-05-30T04:50:46.269Z,1007.39
2017-05-30T04:51:26.803Z,1007.42
2017-05-30T04:52:07.435Z,1007.41
2017-05-30T04:52:47.988Z,1007.39
2017-05-30T04:53:28.543Z,1007.38
2017-05-30T04:54:09.111Z,1007.38
2017-05-30T04:54:49.661Z,1007.39
2017-05-30T04:55:30.211Z,1007.4
2017-05-30T04:56:10.767Z,1007.4
2017-05-30T04:56:51.310Z,1007.41
2017-05-30T04:57:31.852Z,1007.38
2017-05-30T04:58:12.415Z,1007.4
2017-05-30T04:58:52.963Z,1007.41
2017-05-30T04:59:33.511Z,1007.41
2017-05-30T05:00:14.057Z,1007.42
2017-05-30T05:00:54.613Z,1007.42
2017-05-30T05:01:35.168Z,1007.46
2017-05-30T05:02:15.716Z,1007.43
2017-05-30T05:02:56.271Z,1007.48
2017-05-30T05:03:36.813Z,1007.43
2017-05-30T05:04:17.355Z,1007.48
2017-05-30T05:04:57.911Z,1007.46
2017-05-30T05:05:38.465Z,1007.47
2017-05-30T05:06:19.024Z,1007.49
2017-05-30T05:06:59.576Z,1007.48
2017-05-30T05:07:40.125Z,1007.45
2017-05-30T05:08:20.670Z,1007.47
2017-05-30T05:09:01.206Z,1007.46
2017-05-30T05:09:41.761Z,1007.42
2017-05-30T05:10:22.326Z,1007.44
2017-05-30T05:11:02.876Z,1007.43
2017-05-30T05:11:44.058Z,1007.45
2017-05-30T05:12:23.999Z,1007.44
2017-05-30T05:13:04.537Z,1007.43
2017-05-30T05:13:45.088Z,1007.4
2017-05-30T05:14:25.634Z,1007.45
2017-05-30T05:15:06.184Z,1007.44
2017-05-30T05:15:46.731Z,1007.51
2017-05-30T05:16:27.284Z,1007.48
2017-05-30T05:17:07.832Z,1007.5
2017-05-30T05:17:48.380Z,1007.54
2017-05-30T05:18:28.942Z,1007.52
2017-05-30T05:19:09.493Z,1007.55
2017-05-30T05:19:50.048Z,1007.54
2017-05-30T05:20:30.585Z,1007.56
2017-05-30T05:21:11.149Z,1007.58
2017-05-30T05:21:51.688Z,1007.6
2017-05-30T05:22:32.248Z,1007.63
2017-05-30T05:23:12.795Z,1007.64
2017-05-30T05:23:53.347Z,1007.63
2017-05-30T05:24:33.896Z,1007.66
2017-05-30T05:25:14.450Z,1007.66
2017-05-30T05:25:55.002Z,1007.71
2017-05-30T05:26:35.552Z,1007.67
2017-05-30T05:27:16.098Z,1007.68
2017-05-30T05:27:56.648Z,1007.67
2017-05-30T05:28:37.200Z,1007.7
2017-05-30T05:29:17.810Z,1007.75
2017-05-30T05:29:59.287Z,1007.74
2017-05-30T05:30:39.836Z,1007.77
2017-05-30T05:31:20.382Z,1007.75
2017-05-30T05:32:00.919Z,1007.75
2017-05-30T05:32:41.451Z,1007.76
2017-05-30T05:33:21.996Z,1007.72
2017-05-30T05:34:02.548Z,1007.72
2017-05-30T05:34:43.109Z,1007.75
2017-05-30T05:35:23.646Z,1007.78
2017-05-30T05:36:04.192Z,1007.73
2017-05-30T05:36:44.752Z,1007.74
2017-05-30T05:37:25.289Z,1007.74
2017-05-30T05:38:05.836Z,1007.74
2017-05-30T05:38:46.388Z,1007.79
2017-05-30T05:39:26.932Z,1007.72
2017-05-30T05:40:07.481Z,1007.76
2017-05-30T05:40:48.044Z,1007.72
2017-05-30T05:41:28.589Z,1007.7
2017-05-30T05:42:09.161Z,1007.74
2017-05-30T05:42:49.694Z,1007.76
2017-05-30T05:43:30.240Z,1007.73
2017-05-30T05:44:10.791Z,1007.76
2017-05-30T05:44:51.345Z,1007.74
2017-05-30T05:45:32.024Z,1007.75
2017-05-30T05:46:12.791Z,1007.75
2017-05-30T05:46:53.335Z,1007.77
2017-05-30T05:47:33.871Z,1007.76
2017-05-30T05:48:14.427Z,1007.75
2017-05-30T05:48:54.972Z,1007.75
2017-05-30T05:49:35.523Z,1007.74
2017-05-30T05:50:16.077Z,1007.78
2017-05-30T05:50:56.615Z,1007.77
2017-05-30T05:51:37.166Z,1007.73
2017-05-30T05:52:17.717Z,1007.73
2017-05-30T05:52:58.266Z,1007.74
2017-05-30T05:53:38.812Z,1007.7
2017-05-30T05:54:19.365Z,1007.72
2017-05-30T05:54:59.903Z,1007.73
2017-05-30T05:55:40.499Z,1007.75
2017-05-30T05:56:21.017Z,1007.75
2017-05-30T05:57:01.569Z,1007.77
2017-05-30T05:57:42.120Z,1007.78
2017-05-30T05:58:22.675Z,1007.76
2017-05-30T05:59:03.224Z,1007.77
2017-05-30T05:59:43.774Z,1007.78
2017-05-30T06:00:24.353Z,1007.75
2017-05-30T06:01:04.889Z,1007.78
2017-05-30T06:01:45.442Z,1007.77
2017-05-30T06:02:25.984Z,1007.78
2017-05-30T06:03:06.531Z,1007.78
2017-05-30T06:03:47.083Z,1007.77
2017-05-30T06:04:27.636Z,1007.79
2017-05-30T06:05:08.199Z,1007.79
2017-05-30T06:05:48.748Z,1007.8
2017-05-30T06:06:29.295Z,1007.78
2017-05-30T06:07:09.838Z,1007.77
2017-05-30T06:07:50.388Z,1007.79
2017-05-30T06:08:30.938Z,1007.79
2017-05-30T06:09:11.485Z,1007.78
2017-05-30T06:09:52.040Z,1007.76
2017-05-30T06:10:32.596Z,1007.79
2017-05-30T06:11:13.973Z,1007.78
2017-05-30T06:11:54.524Z,1007.76
2017-05-30T06:12:35.072Z,1007.75
2017-05-30T06:13:15.631Z,1007.79
2017-05-30T06:13:56.175Z,1007.82
2017-05-30T06:14:36.717Z,1007.83
2017-05-30T06:15:17.262Z,1007.81
2017-05-30T06:15:57.816Z,1007.8
2017-05-30T06:16:38.369Z,1007.73
2017-05-30T06:17:18.915Z,1007.76
2017-05-30T06:17:59.518Z,1007.73
2017-05-30T06:18:40.022Z,1007.76
2017-05-30T06:19:20.573Z,1007.74
2017-05-30T06:20:01.121Z,1007.75
2017-05-30T06:20:41.670Z,1007.78
2017-05-30T06:21:22.219Z,1007.76
2017-05-30T06:22:02.775Z,1007.77
2017-05-30T06:22:43.336Z,1007.79
2017-05-30T06:23:23.880Z,1007.79
2017-05-30T06:24:04.425Z,1007.8
2017-05-30T06:24:44.976Z,1007.77
2017-05-30T06:25:25.529Z,1007.79
2017-05-30T06:26:06.078Z,1007.74
2017-05-30T06:26:46.625Z,1007.74
2017-05-30T06:27:27.175Z,1007.73
2017-05-30T06:28:07.728Z,1007.74
2017-05-30T06:28:48.283Z,1007.72
2017-05-30T06:29:28.834Z,1007.75
2017-05-30T06:30:09.386Z,1007.74
2017-05-30T06:30:49.948Z,1007.74
2017-05-30T06:31:30.498Z,1007.73
2017-05-30T06:32:11.054Z,1007.74
2017-05-30T06:32:51.606Z,1007.73
2017-05-30T06:33:32.151Z,1007.72
2017-05-30T06:34:12.702Z,1007.78
2017-05-30T06:34:53.256Z,1007.79
2017-05-30T06:35:33.807Z,1007.79
2017-05-30T06:36:14.346Z,1007.81
2017-05-30T06:36:54.919Z,1007.85
2017-05-30T06:37:35.460Z,1007.82
2017-05-30T06:38:16.053Z,1007.81
2017-05-30T06:38:56.617Z,1007.8
2017-05-30T06:39:37.200Z,1007.79
2017-05-30T06:40:17.751Z,1007.81
2017-05-30T06:40:58.313Z,1007.83
2017-05-30T06:41:38.871Z,1007.8
2017-05-30T06:42:19.418Z,1007.85
2017-05-30T06:42:59.969Z,1007.84
2017-05-30T06:43:40.511Z,1007.88
2017-05-30T06:46:00.768Z,1007.87
2017-05-30T06:46:41.288Z,1007.89
2017-05-30T06:47:21.824Z,1007.85
2017-05-30T06:48:02.365Z,1007.9
2017-05-30T06:48:42.899Z,1007.89
2017-05-30T06:49:23.445Z,1007.9
2017-05-30T06:50:03.991Z,1007.89
2017-05-30T06:50:44.542Z,1007.93
2017-05-30T06:51:25.081Z,1007.94
2017-05-30T06:52:05.623Z,1007.94
2017-05-30T06:52:46.171Z,1007.89
2017-05-30T06:53:26.720Z,1007.89
2017-05-30T06:54:07.273Z,1007.91
2017-05-30T06:54:47.856Z,1007.9
2017-05-30T06:55:28.403Z,1007.93
2017-05-30T06:56:08.952Z,1007.92
2017-05-30T06:56:49.506Z,1007.95
2017-05-30T06:57:30.051Z,1007.95
2017-05-30T06:58:10.602Z,1007.91
2017-05-30T06:58:51.173Z,1007.92
2017-05-30T06:59:31.725Z,1007.94
2017-05-30T07:00:12.277Z,1007.92
2017-05-30T07:00:52.812Z,1007.94
2017-05-30T07:01:33.358Z,1007.92
2017-05-30T07:02:13.905Z,1007.96
2017-05-30T07:02:54.463Z,1007.93
2017-05-30T07:03:35.000Z,1007.95
2017-05-30T07:04:15.540Z,1007.95
2017-05-30T07:04:56.066Z,1007.96
2017-05-30T07:05:36.617Z,1007.98
2017-05-30T07:06:17.158Z,1007.99
2017-05-30T07:06:57.713Z,1007.99
2017-05-30T07:07:38.254Z,1008
2017-05-30T07:08:18.798Z,1007.98
2017-05-30T07:08:59.342Z,1007.97
2017-05-30T07:09:39.892Z,1007.98
2017-05-30T07:10:20.435Z,1007.98
2017-05-30T07:11:00.979Z,1008.04
2017-05-30T07:11:41.522Z,1008.06
2017-05-30T07:12:22.068Z,1008.05
2017-05-30T07:13:02.620Z,1008.08
2017-05-30T07:13:43.172Z,1008.07
2017-05-30T07:14:23.718Z,1008.1
2017-05-30T07:15:04.258Z,1008.09
2017-05-30T07:15:44.799Z,1008.09
2017-05-30T07:16:25.343Z,1008.11
2017-05-30T07:17:05.890Z,1008.07
2017-05-30T07:17:46.422Z,1008.09
2017-05-30T07:18:26.973Z,1008.1
2017-05-30T07:19:07.514Z,1008.04
2017-05-30T07:19:48.052Z,1008.11
2017-05-30T07:20:28.595Z,1008.07
2017-05-30T07:21:09.148Z,1008.05
2017-05-30T07:21:49.701Z,1008.05
2017-05-30T07:22:30.254Z,1008
2017-05-30T07:23:10.792Z,1008.01
2017-05-30T07:23:51.341Z,1007.98
2017-05-30T07:24:31.889Z,1008.01
2017-05-30T07:25:12.441Z,1007.96
2017-05-30T07:25:52.991Z,1007.97
2017-05-30T07:26:33.549Z,1007.96
2017-05-30T07:27:14.088Z,1007.95
2017-05-30T07:27:54.637Z,1007.97
2017-05-30T07:28:35.185Z,1007.96
2017-05-30T07:29:15.741Z,1007.96
2017-05-30T07:29:56.295Z,1007.98
2017-05-30T07:30:36.840Z,1007.93
2017-05-30T07:31:17.392Z,1007.95
2017-05-30T07:31:57.944Z,1007.97
2017-05-30T07:32:38.496Z,1007.94
2017-05-30T07:33:19.041Z,1007.96
2017-05-30T07:33:59.587Z,1007.95
2017-05-30T07:34:40.128Z,1007.94
2017-05-30T07:35:20.679Z,1007.9
2017-05-30T07:36:01.227Z,1007.9
2017-05-30T07:36:41.780Z,1007.87
2017-05-30T07:37:22.317Z,1007.86
2017-05-30T07:38:02.862Z,1007.84
2017-05-30T07:38:43.392Z,1007.85
2017-05-30T07:39:23.929Z,1007.82
2017-05-30T07:40:04.474Z,1007.82
2017-05-30T07:40:45.003Z,1007.77
2017-05-30T07:41:25.547Z,1007.79
2017-05-30T07:42:06.090Z,1007.8
2017-05-30T07:42:46.638Z,1007.8
2017-05-30T07:43:27.186Z,1007.81
2017-05-30T07:44:07.738Z,1007.76
2017-05-30T07:44:48.287Z,1007.76
2017-05-30T07:45:28.839Z,1007.79
2017-05-30T07:46:09.394Z,1007.79
2017-05-30T07:46:49.943Z,1007.75
2017-05-30T07:47:30.499Z,1007.76
2017-05-30T07:48:11.049Z,1007.74
2017-05-30T07:48:51.599Z,1007.8
2017-05-30T07:49:32.146Z,1007.78
2017-05-30T07:50:12.690Z,1007.79
2017-05-30T07:50:53.245Z,1007.78
2017-05-30T07:51:33.772Z,1007.79
2017-05-30T07:52:14.313Z,1007.8
2017-05-30T07:52:54.857Z,1007.81
2017-05-30T07:53:35.408Z,1007.78
2017-05-30T07:54:15.944Z,1007.84
2017-05-30T07:54:56.493Z,1007.84
2017-05-30T07:55:37.043Z,1007.85
2017-05-30T07:56:17.601Z,1007.85
2017-05-30T07:56:58.142Z,1007.86
2017-05-30T07:57:38.681Z,1007.84
2017-05-30T07:58:19.229Z,1007.85
2017-05-30T07:58:59.783Z,1007.85
2017-05-30T07:59:40.331Z,1007.87
2017-05-30T08:00:20.875Z,1007.84
2017-05-30T08:01:01.429Z,1007.8
2017-05-30T08:01:41.981Z,1007.84
2017-05-30T08:02:22.534Z,1007.85
2017-05-30T08:03:03.083Z,1007.86
2017-05-30T08:03:43.636Z,1007.84
2017-05-30T08:04:24.183Z,1007.84
2017-05-30T08:05:04.735Z,1007.81
2017-05-30T08:05:45.256Z,1007.81
2017-05-30T08:06:25.799Z,1007.81
2017-05-30T08:07:06.346Z,1007.83
2017-05-30T08:07:46.890Z,1007.83
2017-05-30T08:08:27.467Z,1007.85
2017-05-30T08:09:08.008Z,1007.85
2017-05-30T08:09:48.556Z,1007.84
2017-05-30T08:10:29.089Z,1007.86
2017-05-30T08:11:09.648Z,1007.84
2017-05-30T08:11:50.195Z,1007.83
2017-05-30T08:12:30.733Z,1007.88
2017-05-30T08:13:11.283Z,1007.84
2017-05-30T08:13:51.825Z,1007.88